sensor_id;sensor_type;location;lat;lon;timestamp;pressure;altitude;pressure_sealevel;temperature;humidity
75650;BME280;64245;51.282;22.494;2023-04-10T00:00:08;99843.09;;;7.03;98.21
75650;BME280;64245;51.282;22.494;2023-04-10T00:02:54;99831.00;;;7.10;97.44
75650;BME280;64245;51.282;22.494;2023-04-10T00:05:20;99841.28;;;6.90;98.08
75650;BME280;64245;51.282;22.494;2023-04-10T00:07:46;99824.25;;;6.79;98.33
75650;BME280;64245;51.282;22.494;2023-04-10T00:10:12;99822.97;;;6.72;98.34
75650;BME280;64245;51.282;22.494;2023-04-10T00:12:37;99826.59;;;6.58;98.38
75650;BME280;64245;51.282;22.494;2023-04-10T00:15:03;99850.16;;;6.53;98.61
75650;BME280;64245;51.282;22.494;2023-04-10T00:17:29;99824.22;;;6.15;98.75
75650;BME280;64245;51.282;22.494;2023-04-10T00:19:54;99845.22;;;5.95;99.30
75650;BME280;64245;51.282;22.494;2023-04-10T00:22:20;99827.03;;;5.73;100.00
75650;BME280;64245;51.282;22.494;2023-04-10T00:24:46;99813.09;;;5.68;100.00
75650;BME280;64245;51.282;22.494;2023-04-10T00:27:12;99826.84;;;5.76;100.00
75650;BME280;64245;51.282;22.494;2023-04-10T00:29:37;99818.44;;;5.68;100.00
75650;BME280;64245;51.282;22.494;2023-04-10T00:32:03;99823.50;;;5.72;100.00
75650;BME280;64245;51.282;22.494;2023-04-10T00:34:28;99832.81;;;5.79;100.00
75650;BME280;64245;51.282;22.494;2023-04-10T00:36:54;99820.94;;;5.71;100.00
75650;BME280;64245;51.282;22.494;2023-04-10T00:39:20;99816.25;;;5.74;100.00
75650;BME280;64245;51.282;22.494;2023-04-10T00:41:45;99829.50;;;5.76;100.00
75650;BME280;64245;51.282;22.494;2023-04-10T00:44:11;99825.75;;;5.51;100.00
75650;BME280;64245;51.282;22.494;2023-04-10T00:46:38;99824.34;;;5.46;100.00
75650;BME280;64245;51.282;22.494;2023-04-10T00:49:04;99821.09;;;5.41;100.00
75650;BME280;64245;51.282;22.494;2023-04-10T00:51:30;99815.59;;;5.30;100.00
75650;BME280;64245;51.282;22.494;2023-04-10T00:53:59;99798.25;;;5.22;100.00
75650;BME280;64245;51.282;22.494;2023-04-10T00:56:25;99823.22;;;5.36;100.00
75650;BME280;64245;51.282;22.494;2023-04-10T00:58:51;99801.16;;;5.46;100.00
75650;BME280;64245;51.282;22.494;2023-04-10T01:01:17;99820.56;;;5.36;100.00
75650;BME280;64245;51.282;22.494;2023-04-10T01:03:43;99802.16;;;5.31;100.00
75650;BME280;64245;51.282;22.494;2023-04-10T01:08:53;99812.13;;;5.42;100.00
75650;BME280;64245;51.282;22.494;2023-04-10T01:11:29;99793.31;;;5.43;100.00
75650;BME280;64245;51.282;22.494;2023-04-10T01:16:45;99786.06;;;5.18;100.00
75650;BME280;64245;51.282;22.494;2023-04-10T01:19:49;99806.44;;;5.34;100.00
75650;BME280;64245;51.282;22.494;2023-04-10T01:22:20;99799.81;;;5.39;100.00
75650;BME280;64245;51.282;22.494;2023-04-10T01:27:58;99771.53;;;5.22;100.00
75650;BME280;64245;51.282;22.494;2023-04-10T01:30:31;99778.25;;;5.01;100.00
75650;BME280;64245;51.282;22.494;2023-04-10T01:32:59;99778.19;;;4.89;100.00
75650;BME280;64245;51.282;22.494;2023-04-10T01:35:26;99791.34;;;4.77;100.00
75650;BME280;64245;51.282;22.494;2023-04-10T01:37:55;99780.84;;;4.89;100.00
75650;BME280;64245;51.282;22.494;2023-04-10T01:40:22;99791.03;;;4.82;100.00
75650;BME280;64245;51.282;22.494;2023-04-10T01:42:53;99780.88;;;4.74;100.00
75650;BME280;64245;51.282;22.494;2023-04-10T01:45:24;99795.16;;;4.88;100.00
75650;BME280;64245;51.282;22.494;2023-04-10T01:47:53;99807.72;;;4.85;100.00
75650;BME280;64245;51.282;22.494;2023-04-10T01:50:20;99807.44;;;4.90;100.00
75650;BME280;64245;51.282;22.494;2023-04-10T01:52:50;99792.66;;;4.84;100.00
75650;BME280;64245;51.282;22.494;2023-04-10T01:55:18;99796.75;;;5.18;100.00
75650;BME280;64245;51.282;22.494;2023-04-10T01:57:45;99799.59;;;5.01;100.00
75650;BME280;64245;51.282;22.494;2023-04-10T02:00:14;99804.31;;;4.98;100.00
75650;BME280;64245;51.282;22.494;2023-04-10T02:02:41;99799.44;;;4.90;100.00
75650;BME280;64245;51.282;22.494;2023-04-10T02:05:08;99774.19;;;4.67;100.00
75650;BME280;64245;51.282;22.494;2023-04-10T02:11:01;99790.69;;;4.74;100.00
75650;BME280;64245;51.282;22.494;2023-04-10T02:13:29;99794.97;;;4.76;100.00
75650;BME280;64245;51.282;22.494;2023-04-10T02:15:59;99787.44;;;4.69;100.00
75650;BME280;64245;51.282;22.494;2023-04-10T02:18:29;99787.44;;;4.55;100.00
75650;BME280;64245;51.282;22.494;2023-04-10T02:20:56;99783.81;;;4.56;100.00
75650;BME280;64245;51.282;22.494;2023-04-10T02:23:22;99783.59;;;4.44;100.00
75650;BME280;64245;51.282;22.494;2023-04-10T02:25:48;99809.41;;;4.44;100.00
75650;BME280;64245;51.282;22.494;2023-04-10T02:28:14;99804.56;;;4.36;100.00
75650;BME280;64245;51.282;22.494;2023-04-10T02:30:39;99809.13;;;4.34;100.00
75650;BME280;64245;51.282;22.494;2023-04-10T02:33:05;99800.19;;;4.35;100.00
75650;BME280;64245;51.282;22.494;2023-04-10T02:35:32;99804.94;;;4.44;100.00
75650;BME280;64245;51.282;22.494;2023-04-10T02:37:57;99793.22;;;4.47;100.00
75650;BME280;64245;51.282;22.494;2023-04-10T02:40:23;99801.63;;;4.55;100.00
75650;BME280;64245;51.282;22.494;2023-04-10T02:42:49;99807.47;;;4.62;100.00
75650;BME280;64245;51.282;22.494;2023-04-10T02:45:14;99798.28;;;4.66;100.00
75650;BME280;64245;51.282;22.494;2023-04-10T02:47:40;99797.91;;;4.72;100.00
75650;BME280;64245;51.282;22.494;2023-04-10T02:50:05;99807.06;;;4.68;100.00
75650;BME280;64245;51.282;22.494;2023-04-10T02:52:31;99792.50;;;4.59;100.00
75650;BME280;64245;51.282;22.494;2023-04-10T02:54:57;99803.81;;;4.63;100.00
75650;BME280;64245;51.282;22.494;2023-04-10T02:57:23;99798.88;;;4.71;100.00
75650;BME280;64245;51.282;22.494;2023-04-10T02:59:51;99806.19;;;4.67;100.00
75650;BME280;64245;51.282;22.494;2023-04-10T03:02:18;99790.78;;;4.58;100.00
75650;BME280;64245;51.282;22.494;2023-04-10T03:04:43;99804.59;;;4.79;100.00
75650;BME280;64245;51.282;22.494;2023-04-10T03:07:09;99786.28;;;4.73;100.00
75650;BME280;64245;51.282;22.494;2023-04-10T03:09:34;99784.00;;;4.67;100.00
75650;BME280;64245;51.282;22.494;2023-04-10T03:12:01;99793.63;;;4.69;100.00
75650;BME280;64245;51.282;22.494;2023-04-10T03:14:26;99775.13;;;4.66;100.00
75650;BME280;64245;51.282;22.494;2023-04-10T03:16:53;99779.06;;;4.75;100.00
75650;BME280;64245;51.282;22.494;2023-04-10T03:19:18;99788.38;;;4.82;100.00
75650;BME280;64245;51.282;22.494;2023-04-10T03:21:45;99784.84;;;4.81;100.00
75650;BME280;64245;51.282;22.494;2023-04-10T03:24:11;99799.25;;;4.93;100.00
75650;BME280;64245;51.282;22.494;2023-04-10T03:26:37;99789.41;;;5.08;100.00
75650;BME280;64245;51.282;22.494;2023-04-10T03:29:02;99778.91;;;5.19;100.00
75650;BME280;64245;51.282;22.494;2023-04-10T03:31:30;99794.91;;;5.33;100.00
75650;BME280;64245;51.282;22.494;2023-04-10T03:34:12;99777.94;;;5.20;100.00
75650;BME280;64245;51.282;22.494;2023-04-10T03:36:41;99775.81;;;5.25;100.00
75650;BME280;64245;51.282;22.494;2023-04-10T03:39:09;99785.00;;;5.21;100.00
75650;BME280;64245;51.282;22.494;2023-04-10T03:41:35;99786.50;;;5.25;100.00
75650;BME280;64245;51.282;22.494;2023-04-10T03:44:01;99782.53;;;5.18;100.00
75650;BME280;64245;51.282;22.494;2023-04-10T03:46:28;99800.53;;;5.29;100.00
75650;BME280;64245;51.282;22.494;2023-04-10T03:48:53;99783.50;;;5.17;100.00
75650;BME280;64245;51.282;22.494;2023-04-10T03:51:19;99803.59;;;5.22;100.00
75650;BME280;64245;51.282;22.494;2023-04-10T03:53:45;99798.47;;;5.19;100.00
75650;BME280;64245;51.282;22.494;2023-04-10T03:56:11;99792.63;;;5.27;100.00
75650;BME280;64245;51.282;22.494;2023-04-10T03:58:37;99792.03;;;5.22;100.00
75650;BME280;64245;51.282;22.494;2023-04-10T04:01:04;99806.25;;;5.37;100.00
75650;BME280;64245;51.282;22.494;2023-04-10T04:03:29;99785.13;;;5.19;100.00
75650;BME280;64245;51.282;22.494;2023-04-10T04:05:55;99787.66;;;5.21;100.00
75650;BME280;64245;51.282;22.494;2023-04-10T04:08:21;99787.50;;;5.10;100.00
75650;BME280;64245;51.282;22.494;2023-04-10T04:10:47;99804.63;;;5.20;100.00
75650;BME280;64245;51.282;22.494;2023-04-10T04:13:12;99793.97;;;5.06;100.00
75650;BME280;64245;51.282;22.494;2023-04-10T04:15:38;99803.13;;;5.02;100.00
75650;BME280;64245;51.282;22.494;2023-04-10T04:18:03;99808.22;;;4.92;100.00
75650;BME280;64245;51.282;22.494;2023-04-10T04:20:29;99799.34;;;4.77;100.00
75650;BME280;64245;51.282;22.494;2023-04-10T04:22:55;99796.28;;;4.69;100.00
75650;BME280;64245;51.282;22.494;2023-04-10T04:25:21;99806.97;;;4.69;100.00
75650;BME280;64245;51.282;22.494;2023-04-10T04:27:46;99821.47;;;4.79;100.00
75650;BME280;64245;51.282;22.494;2023-04-10T04:30:12;99812.31;;;4.69;100.00
75650;BME280;64245;51.282;22.494;2023-04-10T04:32:37;99811.44;;;4.55;100.00
75650;BME280;64245;51.282;22.494;2023-04-10T04:35:04;99826.88;;;4.64;100.00
75650;BME280;64245;51.282;22.494;2023-04-10T04:37:29;99820.94;;;4.44;100.00
75650;BME280;64245;51.282;22.494;2023-04-10T04:39:55;99828.38;;;4.39;100.00
75650;BME280;64245;51.282;22.494;2023-04-10T04:42:21;99834.38;;;4.43;100.00
75650;BME280;64245;51.282;22.494;2023-04-10T04:44:48;99834.38;;;4.43;100.00
75650;BME280;64245;51.282;22.494;2023-04-10T04:47:13;99828.38;;;4.39;100.00
75650;BME280;64245;51.282;22.494;2023-04-10T04:49:39;99826.38;;;4.43;100.00
75650;BME280;64245;51.282;22.494;2023-04-10T04:52:05;99847.16;;;4.66;100.00
75650;BME280;64245;51.282;22.494;2023-04-10T04:54:31;99825.66;;;4.69;100.00
75650;BME280;64245;51.282;22.494;2023-04-10T04:56:56;99818.91;;;4.78;100.00
75650;BME280;64245;51.282;22.494;2023-04-10T04:59:22;99826.50;;;4.84;100.00
75650;BME280;64245;51.282;22.494;2023-04-10T05:01:47;99826.22;;;4.89;100.00
75650;BME280;64245;51.282;22.494;2023-04-10T05:04:13;99825.34;;;4.88;100.00
75650;BME280;64245;51.282;22.494;2023-04-10T05:06:39;99843.28;;;5.00;100.00
75650;BME280;64245;51.282;22.494;2023-04-10T05:09:04;99842.63;;;5.11;100.00
75650;BME280;64245;51.282;22.494;2023-04-10T05:11:30;99838.22;;;5.10;100.00
75650;BME280;64245;51.282;22.494;2023-04-10T05:13:55;99844.81;;;5.18;100.00
75650;BME280;64245;51.282;22.494;2023-04-10T05:16:21;99843.25;;;5.29;100.00
75650;BME280;64245;51.282;22.494;2023-04-10T05:18:47;99838.75;;;5.43;100.00
75650;BME280;64245;51.282;22.494;2023-04-10T05:21:12;99852.56;;;5.50;100.00
75650;BME280;64245;51.282;22.494;2023-04-10T05:23:38;99848.94;;;5.51;100.00
75650;BME280;64245;51.282;22.494;2023-04-10T05:26:04;99853.91;;;5.57;100.00
75650;BME280;64245;51.282;22.494;2023-04-10T05:28:30;99845.03;;;5.57;100.00
75650;BME280;64245;51.282;22.494;2023-04-10T05:30:56;99851.97;;;5.59;100.00
75650;BME280;64245;51.282;22.494;2023-04-10T05:33:22;99865.19;;;5.75;100.00
75650;BME280;64245;51.282;22.494;2023-04-10T05:35:47;99852.22;;;5.69;100.00
75650;BME280;64245;51.282;22.494;2023-04-10T05:38:13;99860.09;;;5.84;100.00
75650;BME280;64245;51.282;22.494;2023-04-10T05:40:38;99869.91;;;5.98;100.00
75650;BME280;64245;51.282;22.494;2023-04-10T05:43:04;99854.09;;;5.95;100.00
75650;BME280;64245;51.282;22.494;2023-04-10T05:45:30;99858.50;;;6.09;100.00
75650;BME280;64245;51.282;22.494;2023-04-10T05:47:56;99853.84;;;6.25;100.00
75650;BME280;64245;51.282;22.494;2023-04-10T05:50:21;99869.59;;;6.30;100.00
75650;BME280;64245;51.282;22.494;2023-04-10T05:52:47;99869.06;;;6.37;100.00
75650;BME280;64245;51.282;22.494;2023-04-10T05:55:12;99871.53;;;6.40;100.00
75650;BME280;64245;51.282;22.494;2023-04-10T05:57:38;99863.75;;;6.50;100.00
75650;BME280;64245;51.282;22.494;2023-04-10T06:00:04;99869.75;;;6.66;100.00
75650;BME280;64245;51.282;22.494;2023-04-10T06:02:31;99861.06;;;6.75;100.00
75650;BME280;64245;51.282;22.494;2023-04-10T06:04:57;99866.84;;;6.94;100.00
75650;BME280;64245;51.282;22.494;2023-04-10T06:07:22;99866.34;;;7.02;99.60
75650;BME280;64245;51.282;22.494;2023-04-10T06:09:48;99862.44;;;7.19;97.80
75650;BME280;64245;51.282;22.494;2023-04-10T06:12:14;99874.53;;;7.37;97.64
75650;BME280;64245;51.282;22.494;2023-04-10T06:14:39;99875.03;;;7.55;97.86
75650;BME280;64245;51.282;22.494;2023-04-10T06:17:05;99867.53;;;7.60;96.44
75650;BME280;64245;51.282;22.494;2023-04-10T06:19:31;99867.31;;;7.63;96.31
75650;BME280;64245;51.282;22.494;2023-04-10T06:21:57;99863.31;;;7.69;95.81
75650;BME280;64245;51.282;22.494;2023-04-10T06:24:22;99871.66;;;7.77;96.38
75650;BME280;64245;51.282;22.494;2023-04-10T06:26:48;99879.63;;;7.89;95.86
75650;BME280;64245;51.282;22.494;2023-04-10T06:29:14;99875.88;;;7.92;96.09
75650;BME280;64245;51.282;22.494;2023-04-10T06:31:40;99867.59;;;7.95;95.71
75650;BME280;64245;51.282;22.494;2023-04-10T06:34:05;99866.38;;;7.88;95.50
75650;BME280;64245;51.282;22.494;2023-04-10T06:36:31;99870.41;;;7.93;95.86
75650;BME280;64245;51.282;22.494;2023-04-10T06:38:57;99875.31;;;8.00;95.30
75650;BME280;64245;51.282;22.494;2023-04-10T06:41:23;99878.63;;;8.03;94.71
75650;BME280;64245;51.282;22.494;2023-04-10T06:43:48;99894.31;;;8.20;94.69
75650;BME280;64245;51.282;22.494;2023-04-10T06:46:14;99866.19;;;8.26;94.26
75650;BME280;64245;51.282;22.494;2023-04-10T06:48:40;99870.13;;;8.33;93.79
75650;BME280;64245;51.282;22.494;2023-04-10T06:51:06;99884.09;;;8.49;93.09
75650;BME280;64245;51.282;22.494;2023-04-10T06:53:31;99878.25;;;8.55;92.73
75650;BME280;64245;51.282;22.494;2023-04-10T06:55:57;99884.16;;;8.72;92.14
75650;BME280;64245;51.282;22.494;2023-04-10T06:58:23;99868.53;;;8.65;91.51
75650;BME280;64245;51.282;22.494;2023-04-10T07:00:49;99885.38;;;8.68;90.47
75650;BME280;64245;51.282;22.494;2023-04-10T07:03:14;99873.81;;;8.78;90.33
75650;BME280;64245;51.282;22.494;2023-04-10T07:05:40;99886.16;;;8.92;90.57
75650;BME280;64245;51.282;22.494;2023-04-10T07:08:06;99865.66;;;8.91;90.02
75650;BME280;64245;51.282;22.494;2023-04-10T07:10:33;99862.50;;;8.97;90.23
75650;BME280;64245;51.282;22.494;2023-04-10T07:12:58;99867.75;;;9.10;88.76
75650;BME280;64245;51.282;22.494;2023-04-10T07:15:24;99858.84;;;9.20;88.52
75650;BME280;64245;51.282;22.494;2023-04-10T07:17:50;99874.47;;;9.38;87.30
75650;BME280;64245;51.282;22.494;2023-04-10T07:20:16;99878.75;;;9.40;86.55
75650;BME280;64245;51.282;22.494;2023-04-10T07:22:41;99869.94;;;9.49;87.12
75650;BME280;64245;51.282;22.494;2023-04-10T07:25:07;99883.50;;;9.81;86.69
75650;BME280;64245;51.282;22.494;2023-04-10T07:27:33;99886.94;;;10.04;85.16
75650;BME280;64245;51.282;22.494;2023-04-10T07:29:59;99863.63;;;9.93;85.13
75650;BME280;64245;51.282;22.494;2023-04-10T07:32:24;99870.81;;;10.04;86.66
75650;BME280;64245;51.282;22.494;2023-04-10T07:34:50;99868.47;;;10.11;84.37
75650;BME280;64245;51.282;22.494;2023-04-10T07:37:16;99890.50;;;10.16;83.89
75650;BME280;64245;51.282;22.494;2023-04-10T07:39:43;99876.53;;;10.22;84.79
75650;BME280;64245;51.282;22.494;2023-04-10T07:42:10;99887.53;;;10.30;84.06
75650;BME280;64245;51.282;22.494;2023-04-10T07:44:36;99884.75;;;10.52;83.03
75650;BME280;64245;51.282;22.494;2023-04-10T07:47:02;99876.00;;;10.60;81.68
75650;BME280;64245;51.282;22.494;2023-04-10T07:49:28;99872.91;;;10.44;81.39
75650;BME280;64245;51.282;22.494;2023-04-10T07:51:53;99883.63;;;10.55;82.10
75650;BME280;64245;51.282;22.494;2023-04-10T07:54:19;99879.53;;;10.60;81.30
75650;BME280;64245;51.282;22.494;2023-04-10T07:56:45;99877.84;;;10.59;81.47
75650;BME280;64245;51.282;22.494;2023-04-10T07:59:10;99865.75;;;10.54;80.54
75650;BME280;64245;51.282;22.494;2023-04-10T08:01:36;99882.38;;;10.80;80.95
75650;BME280;64245;51.282;22.494;2023-04-10T08:04:02;99871.22;;;10.84;80.79
75650;BME280;64245;51.282;22.494;2023-04-10T08:06:28;99863.50;;;10.80;80.40
75650;BME280;64245;51.282;22.494;2023-04-10T08:08:54;99859.44;;;11.06;80.55
75650;BME280;64245;51.282;22.494;2023-04-10T08:11:31;99866.50;;;11.28;79.82
75650;BME280;64245;51.282;22.494;2023-04-10T08:13:59;99874.34;;;11.40;77.54
75650;BME280;64245;51.282;22.494;2023-04-10T08:16:29;99859.53;;;11.25;77.93
75650;BME280;64245;51.282;22.494;2023-04-10T08:18:56;99860.06;;;11.50;78.53
75650;BME280;64245;51.282;22.494;2023-04-10T08:21:23;99846.56;;;11.50;78.60
75650;BME280;64245;51.282;22.494;2023-04-10T08:23:49;99864.00;;;11.76;76.68
75650;BME280;64245;51.282;22.494;2023-04-10T08:26:16;99855.66;;;11.98;76.07
75650;BME280;64245;51.282;22.494;2023-04-10T08:28:42;99870.63;;;12.22;75.77
75650;BME280;64245;51.282;22.494;2023-04-10T08:31:12;99857.97;;;12.22;75.35
75650;BME280;64245;51.282;22.494;2023-04-10T08:33:38;99864.38;;;12.31;74.31
75650;BME280;64245;51.282;22.494;2023-04-10T08:36:04;99856.84;;;12.44;73.25
75650;BME280;64245;51.282;22.494;2023-04-10T08:38:31;99839.91;;;12.52;74.64
75650;BME280;64245;51.282;22.494;2023-04-10T08:40:57;99852.84;;;12.67;74.11
75650;BME280;64245;51.282;22.494;2023-04-10T08:43:22;99851.16;;;12.66;73.34
75650;BME280;64245;51.282;22.494;2023-04-10T08:45:50;99842.16;;;12.75;72.56
75650;BME280;64245;51.282;22.494;2023-04-10T08:48:18;99864.88;;;13.02;72.22
75650;BME280;64245;51.282;22.494;2023-04-10T08:50:44;99854.72;;;13.13;70.38
75650;BME280;64245;51.282;22.494;2023-04-10T08:53:12;99854.69;;;13.33;71.24
75650;BME280;64245;51.282;22.494;2023-04-10T08:55:39;99865.50;;;13.42;70.27
75650;BME280;64245;51.282;22.494;2023-04-10T08:58:06;99857.88;;;13.56;70.59
75650;BME280;64245;51.282;22.494;2023-04-10T09:00:33;99852.75;;;13.53;68.21
75650;BME280;64245;51.282;22.494;2023-04-10T09:03:00;99851.16;;;13.60;69.57
75650;BME280;64245;51.282;22.494;2023-04-10T09:05:29;99849.88;;;13.64;68.01
75650;BME280;64245;51.282;22.494;2023-04-10T09:07:55;99840.25;;;13.79;67.09
75650;BME280;64245;51.282;22.494;2023-04-10T09:10:22;99846.22;;;13.82;70.26
75650;BME280;64245;51.282;22.494;2023-04-10T09:12:48;99858.69;;;14.11;70.00
75650;BME280;64245;51.282;22.494;2023-04-10T09:15:14;99843.44;;;14.28;67.92
75650;BME280;64245;51.282;22.494;2023-04-10T09:18:00;99849.41;;;14.31;65.50
75650;BME280;64245;51.282;22.494;2023-04-10T09:20:30;99823.94;;;14.06;67.90
75650;BME280;64245;51.282;22.494;2023-04-10T09:22:57;99831.16;;;14.33;67.40
75650;BME280;64245;51.282;22.494;2023-04-10T09:25:33;99849.66;;;14.38;67.63
75650;BME280;64245;51.282;22.494;2023-04-10T09:28:07;99837.38;;;14.61;67.15
75650;BME280;64245;51.282;22.494;2023-04-10T09:30:37;99845.31;;;14.80;66.61
75650;BME280;64245;51.282;22.494;2023-04-10T09:33:24;99826.91;;;15.18;64.74
75650;BME280;64245;51.282;22.494;2023-04-10T09:35:57;99832.19;;;15.53;63.92
75650;BME280;64245;51.282;22.494;2023-04-10T09:38:25;99819.88;;;15.67;62.61
75650;BME280;64245;51.282;22.494;2023-04-10T09:40:51;99839.94;;;15.74;60.69
75650;BME280;64245;51.282;22.494;2023-04-10T09:43:21;99828.06;;;15.75;63.98
75650;BME280;64245;51.282;22.494;2023-04-10T09:45:52;99847.16;;;15.32;62.17
75650;BME280;64245;51.282;22.494;2023-04-10T09:48:19;99844.72;;;15.20;64.64
75650;BME280;64245;51.282;22.494;2023-04-10T09:50:45;99830.19;;;15.30;63.31
75650;BME280;64245;51.282;22.494;2023-04-10T09:53:22;99828.22;;;15.74;63.50
75650;BME280;64245;51.282;22.494;2023-04-10T09:55:49;99828.63;;;15.95;59.99
75650;BME280;64245;51.282;22.494;2023-04-10T09:58:15;99832.03;;;16.05;59.43
75650;BME280;64245;51.282;22.494;2023-04-10T10:00:43;99833.34;;;15.85;59.44
75650;BME280;64245;51.282;22.494;2023-04-10T10:03:16;99821.09;;;15.81;60.85
75650;BME280;64245;51.282;22.494;2023-04-10T10:05:48;99833.81;;;15.80;59.46
75650;BME280;64245;51.282;22.494;2023-04-10T10:08:14;99816.63;;;15.64;59.74
75650;BME280;64245;51.282;22.494;2023-04-10T10:10:45;99822.09;;;15.80;60.08
75650;BME280;64245;51.282;22.494;2023-04-10T10:13:23;99810.28;;;15.89;59.90
75650;BME280;64245;51.282;22.494;2023-04-10T10:18:40;99825.28;;;16.26;60.50
75650;BME280;64245;51.282;22.494;2023-04-10T10:21:08;99808.81;;;16.43;59.84
75650;BME280;64245;51.282;22.494;2023-04-10T10:23:35;99799.41;;;15.89;58.43
75650;BME280;64245;51.282;22.494;2023-04-10T10:26:04;99817.13;;;16.26;61.58
75650;BME280;64245;51.282;22.494;2023-04-10T10:28:32;99822.75;;;16.32;58.55
75650;BME280;64245;51.282;22.494;2023-04-10T10:31:01;99815.44;;;16.57;58.38
75650;BME280;64245;51.282;22.494;2023-04-10T10:33:28;99803.53;;;16.58;57.19
75650;BME280;64245;51.282;22.494;2023-04-10T10:36:02;99803.06;;;16.71;59.82
75650;BME280;64245;51.282;22.494;2023-04-10T10:38:30;99796.72;;;17.11;59.29
75650;BME280;64245;51.282;22.494;2023-04-10T10:41:08;99794.16;;;17.56;56.36
75650;BME280;64245;51.282;22.494;2023-04-10T10:44:05;99791.97;;;17.91;54.30
75650;BME280;64245;51.282;22.494;2023-04-10T10:46:50;99779.22;;;18.37;55.22
75650;BME280;64245;51.282;22.494;2023-04-10T10:49:16;99777.72;;;19.39;49.32
75650;BME280;64245;51.282;22.494;2023-04-10T10:51:46;99780.44;;;19.69;49.89
75650;BME280;64245;51.282;22.494;2023-04-10T10:54:28;99785.47;;;19.86;48.87
75650;BME280;64245;51.282;22.494;2023-04-10T10:56:54;99783.09;;;20.55;46.48
75650;BME280;64245;51.282;22.494;2023-04-10T11:02:16;99758.13;;;21.62;42.90
75650;BME280;64245;51.282;22.494;2023-04-10T11:04:46;99756.00;;;20.88;46.14
75650;BME280;64245;51.282;22.494;2023-04-10T11:07:13;99763.56;;;21.55;42.49
75650;BME280;64245;51.282;22.494;2023-04-10T11:09:53;99756.22;;;21.62;41.16
75650;BME280;64245;51.282;22.494;2023-04-10T11:12:23;99754.16;;;22.45;41.29
75650;BME280;64245;51.282;22.494;2023-04-10T11:15:00;99750.28;;;22.13;39.29
75650;BME280;64245;51.282;22.494;2023-04-10T11:17:45;99756.91;;;22.32;38.47
75650;BME280;64245;51.282;22.494;2023-04-10T11:20:12;99754.25;;;21.91;41.33
75650;BME280;64245;51.282;22.494;2023-04-10T11:23:06;99744.44;;;22.43;41.64
75650;BME280;64245;51.282;22.494;2023-04-10T11:25:49;99742.97;;;22.47;38.57
75650;BME280;64245;51.282;22.494;2023-04-10T11:33:49;99736.38;;;22.21;41.43
75650;BME280;64245;51.282;22.494;2023-04-10T11:36:16;99736.63;;;21.65;38.08
75650;BME280;64245;51.282;22.494;2023-04-10T11:39:02;99719.09;;;21.60;38.88
75650;BME280;64245;51.282;22.494;2023-04-10T11:41:32;99714.47;;;22.61;38.52
75650;BME280;64245;51.282;22.494;2023-04-10T11:43:59;99704.09;;;22.96;36.43
75650;BME280;64245;51.282;22.494;2023-04-10T11:46:26;99715.53;;;22.80;37.50
75650;BME280;64245;51.282;22.494;2023-04-10T11:48:52;99711.13;;;23.94;35.32
75650;BME280;64245;51.282;22.494;2023-04-10T11:51:18;99695.47;;;22.46;38.69
75650;BME280;64245;51.282;22.494;2023-04-10T11:53:44;99697.91;;;23.20;37.99
75650;BME280;64245;51.282;22.494;2023-04-10T11:56:15;99688.59;;;21.83;36.83
75650;BME280;64245;51.282;22.494;2023-04-10T11:58:41;99685.75;;;21.09;38.25
75650;BME280;64245;51.282;22.494;2023-04-10T12:01:06;99680.50;;;20.73;41.17
75650;BME280;64245;51.282;22.494;2023-04-10T12:03:38;99683.03;;;20.04;41.78
75650;BME280;64245;51.282;22.494;2023-04-10T12:06:05;99693.66;;;20.62;40.44
75650;BME280;64245;51.282;22.494;2023-04-10T12:08:37;99691.31;;;20.10;41.05
75650;BME280;64245;51.282;22.494;2023-04-10T12:11:03;99689.09;;;20.20;40.64
75650;BME280;64245;51.282;22.494;2023-04-10T12:13:29;99658.34;;;21.50;41.12
75650;BME280;64245;51.282;22.494;2023-04-10T12:16:02;99669.91;;;22.59;36.53
75650;BME280;64245;51.282;22.494;2023-04-10T12:18:28;99666.53;;;22.44;36.89
75650;BME280;64245;51.282;22.494;2023-04-10T12:20:55;99676.22;;;22.07;37.26
75650;BME280;64245;51.282;22.494;2023-04-10T12:23:22;99677.16;;;20.77;38.85
75650;BME280;64245;51.282;22.494;2023-04-10T12:25:49;99674.31;;;20.15;39.25
75650;BME280;64245;51.282;22.494;2023-04-10T12:28:23;99653.28;;;20.37;42.25
75650;BME280;64245;51.282;22.494;2023-04-10T12:30:51;99663.66;;;21.64;39.23
75650;BME280;64245;51.282;22.494;2023-04-10T12:33:21;99645.31;;;21.58;39.04
75650;BME280;64245;51.282;22.494;2023-04-10T12:35:47;99656.59;;;22.43;38.40
75650;BME280;64245;51.282;22.494;2023-04-10T12:38:13;99641.13;;;23.52;35.45
75650;BME280;64245;51.282;22.494;2023-04-10T12:40:57;99644.56;;;24.10;34.42
75650;BME280;64245;51.282;22.494;2023-04-10T12:43:42;99646.41;;;22.96;35.30
75650;BME280;64245;51.282;22.494;2023-04-10T12:46:09;99645.28;;;21.04;38.02
75650;BME280;64245;51.282;22.494;2023-04-10T12:48:46;99649.25;;;20.11;41.27
75650;BME280;64245;51.282;22.494;2023-04-10T12:51:12;99653.53;;;18.47;46.60
75650;BME280;64245;51.282;22.494;2023-04-10T12:53:45;99675.59;;;17.46;52.96
75650;BME280;64245;51.282;22.494;2023-04-10T12:56:12;99690.16;;;16.83;53.80
75650;BME280;64245;51.282;22.494;2023-04-10T12:58:38;99684.97;;;15.92;54.19
75650;BME280;64245;51.282;22.494;2023-04-10T13:01:06;99713.28;;;15.15;54.97
75650;BME280;64245;51.282;22.494;2023-04-10T13:03:33;99706.81;;;14.30;66.15
75650;BME280;64245;51.282;22.494;2023-04-10T13:06:01;99678.19;;;13.84;67.84
75650;BME280;64245;51.282;22.494;2023-04-10T13:08:27;99668.13;;;13.94;71.40
75650;BME280;64245;51.282;22.494;2023-04-10T13:10:53;99654.75;;;13.57;71.67
75650;BME280;64245;51.282;22.494;2023-04-10T13:13:19;99657.59;;;13.20;74.95
75650;BME280;64245;51.282;22.494;2023-04-10T13:15:45;99645.03;;;13.46;77.37